»·PEaware :: AAL969 KMIA-KDFW

AAL969 :: KMIA-KDFW

FLIGHT INFORMATION

Flight Status: Arrived
Operator:
American Airlines
More flights by this operator :: More flights under this callsign
Pilot: Drew L. (13237)
Aircraft: BOEING 777-200
(B772)
More flights by this aircraft type
Origin: KMIA Miami Intl
United States
Destination: KDFW Dallas-Ft Worth Intl
United States
More flights between these airports :: More routes between these airports
Route: WINCO2 WINCO J73 LBV SRQ Q100 REDFN Q105 HRV J58 AEX PNUTS WHINY4
File this flight plan on PilotEdge
Remarks:
Altitude:
(Current/Filed)
34,000ft
Speed:
(Current/Filed)
115kts
Departed: 10-Mar-17 02:31 PM
Arrived: 10-Mar-17 05:01 PM
Distance/Time
Traveled:
972nm/2:30
Distance/Time
To Go:
Arrived

Flight Plot

Page will automatically refresh every two minutes.

Flight plan parsing failed; only flown route is shown


Map Options




Map Legend


Flown Route
Filed Route
Departure Airport
Arrival Airport
Navaid (VOR, NDB)
Fix

Horizontal Profiles

Position Reports

Time Latitude Longitude Heading Altitude Ground
Speed
10-Mar-17 14:13 25.797934 -80.278358 177 24ft 0kts
10-Mar-17 14:14 25.797934 -80.278358 177 24ft 0kts
10-Mar-17 14:15 25.797934 -80.278358 177 24ft 0kts
10-Mar-17 14:16 25.797934 -80.278358 177 24ft 0kts
10-Mar-17 14:17 25.797934 -80.278358 177 24ft 0kts
10-Mar-17 14:18 25.797934 -80.278358 177 24ft 0kts
10-Mar-17 14:19 25.797934 -80.278358 177 24ft 0kts
10-Mar-17 14:20 25.797934 -80.278358 177 23ft 0kts
10-Mar-17 14:21 25.797934 -80.278358 177 23ft 0kts
10-Mar-17 14:22 25.797934 -80.278358 177 23ft 0kts
10-Mar-17 14:23 25.798446 -80.278383 177 23ft 2kts
10-Mar-17 14:24 25.799141 -80.278421 177 23ft 0kts
10-Mar-17 14:25 25.799141 -80.278421 177 23ft 0kts
10-Mar-17 14:26 25.799141 -80.278421 177 23ft 0kts
10-Mar-17 14:27 25.799135 -80.278421 177 23ft 1kts
10-Mar-17 14:28 25.799553 -80.282532 267 23ft 25kts
10-Mar-17 14:29 25.799098 -80.290654 262 23ft 27kts
10-Mar-17 14:30 25.799172 -80.297834 291 23ft 17kts
10-Mar-17 14:31 25.800686 -80.300891 70 23ft 9kts
10-Mar-17 14:32 25.800756 -80.299684 87 23ft 41kts
10-Mar-17 14:33 25.802806 -80.255571 87 1306ft 182kts
10-Mar-17 14:34 25.807025 -80.192698 85 3808ft 239kts
10-Mar-17 14:35 25.855061 -80.156374 339 5551ft 267kts
10-Mar-17 14:36 25.926268 -80.180313 329 8770ft 275kts
10-Mar-17 14:37 25.993391 -80.232359 302 11185ft 339kts
10-Mar-17 14:38 26.019094 -80.337935 283 13487ft 374kts
10-Mar-17 14:39 26.044774 -80.451969 283 16694ft 390kts
10-Mar-17 14:40 26.071652 -80.570294 283 19897ft 401kts
10-Mar-17 14:41 26.127983 -80.676600 314 23084ft 420kts
10-Mar-17 14:42 26.211912 -80.762980 312 26195ft 423kts
10-Mar-17 14:43 26.298753 -80.851504 312 28904ft 429kts
10-Mar-17 14:44 26.387221 -80.941329 312 31400ft 433kts
10-Mar-17 14:45 26.449597 -81.004740 311 33044ft 421kts
10-Mar-17 14:46 26.534262 -81.091051 310 34085ft 410kts
10-Mar-17 14:47 26.617619 -81.175709 310 34098ft 408kts
10-Mar-17 14:48 26.701221 -81.261154 310 34106ft 408kts
10-Mar-17 14:49 26.784580 -81.346594 310 34105ft 408kts
10-Mar-17 14:50 26.853413 -81.443194 295 34122ft 395kts
10-Mar-17 14:51 26.907333 -81.549994 294 34127ft 395kts
10-Mar-17 14:52 26.960674 -81.657077 294 34125ft 395kts
10-Mar-17 14:53 27.014031 -81.764552 294 34123ft 395kts
10-Mar-17 14:54 27.067264 -81.872056 294 34120ft 395kts
10-Mar-17 14:55 27.120385 -81.979579 294 34118ft 395kts
10-Mar-17 14:56 27.173196 -82.086781 294 34116ft 395kts
10-Mar-17 14:57 27.226413 -82.194322 294 34133ft 395kts
10-Mar-17 14:58 27.276781 -82.296987 294 34118ft 413kts
10-Mar-17 14:59 27.333378 -82.412632 294 34100ft 424kts
10-Mar-17 15:00 27.389699 -82.528110 294 34100ft 422kts
10-Mar-17 15:01 27.423271 -82.652266 280 34097ft 417kts
10-Mar-17 15:02 27.447198 -82.779619 280 34094ft 416kts
10-Mar-17 15:03 27.470789 -82.907035 280 34091ft 416kts
10-Mar-17 15:04 27.494242 -83.034532 280 34089ft 416kts
10-Mar-17 15:05 27.517815 -83.162043 280 34106ft 416kts
10-Mar-17 15:06 27.541135 -83.289350 280 34104ft 416kts
10-Mar-17 15:07 27.564215 -83.416794 280 34103ft 416kts
10-Mar-17 15:08 27.583407 -83.523387 280 34101ft 416kts
10-Mar-17 15:09 27.610059 -83.672242 280 34098ft 416kts
10-Mar-17 15:10 27.633995 -83.771965 285 34098ft 417kts
10-Mar-17 15:11 27.674286 -83.917644 285 34093ft 417kts
10-Mar-17 15:12 27.702594 -84.021544 285 34090ft 417kts
10-Mar-17 15:13 27.742347 -84.167179 284 34107ft 417kts
10-Mar-17 15:14 27.770579 -84.271248 284 34106ft 417kts
10-Mar-17 15:15 27.809810 -84.417075 284 34103ft 417kts
10-Mar-17 15:16 27.837768 -84.521474 284 34100ft 417kts
10-Mar-17 15:17 27.876723 -84.667529 284 34097ft 417kts
10-Mar-17 15:18 27.904366 -84.771586 284 34095ft 417kts
10-Mar-17 15:19 27.937592 -84.897124 284 34093ft 417kts
10-Mar-17 15:20 27.970680 -85.022645 284 34090ft 417kts
10-Mar-17 15:21 28.004285 -85.149631 282 34109ft 429kts
10-Mar-17 15:22 28.038074 -85.278242 282 34105ft 426kts
10-Mar-17 15:23 28.071520 -85.406655 282 34103ft 426kts
10-Mar-17 15:24 28.104845 -85.535192 282 34100ft 427kts
10-Mar-17 15:25 28.138155 -85.664208 282 34098ft 427kts
10-Mar-17 15:26 28.171214 -85.792824 282 34096ft 427kts
10-Mar-17 15:27 28.204262 -85.921936 282 34093ft 427kts
10-Mar-17 15:28 28.237242 -86.051331 282 34091ft 427kts
10-Mar-17 15:29 28.270356 -86.180593 281 34107ft 428kts
10-Mar-17 15:30 28.303219 -86.310167 281 34105ft 428kts
10-Mar-17 15:31 28.335822 -86.439714 281 34151ft 427kts
10-Mar-17 15:32 28.368286 -86.569324 281 34155ft 427kts
10-Mar-17 15:33 28.400639 -86.699047 281 34152ft 428kts
10-Mar-17 15:34 28.432930 -86.829118 281 34150ft 428kts
10-Mar-17 15:35 28.464969 -86.958741 281 34148ft 428kts
10-Mar-17 15:36 28.497557 -87.091261 281 34155ft 447kts
10-Mar-17 15:37 28.531123 -87.226612 281 34162ft 445kts
10-Mar-17 15:38 28.564199 -87.362072 281 34154ft 446kts
10-Mar-17 15:39 28.629098 -87.484126 300 34152ft 463kts
10-Mar-17 15:40 28.700511 -87.604998 296 34151ft 460kts
10-Mar-17 15:41 28.768673 -87.727597 296 34150ft 460kts
10-Mar-17 15:42 28.836621 -87.850817 296 34175ft 460kts
10-Mar-17 15:43 28.904632 -87.974584 296 34174ft 460kts
10-Mar-17 15:44 28.972407 -88.098259 296 34176ft 462kts
10-Mar-17 15:45 29.040311 -88.221743 295 34186ft 461kts
10-Mar-17 15:46 29.108217 -88.346335 295 34184ft 461kts
10-Mar-17 15:47 29.175897 -88.470969 295 34183ft 462kts
10-Mar-17 15:48 29.243355 -88.595586 295 34182ft 463kts
10-Mar-17 15:49 29.311083 -88.721078 295 34181ft 464kts
10-Mar-17 15:50 29.378660 -88.846679 295 34179ft 464kts
10-Mar-17 15:51 29.445963 -88.972144 295 34178ft 465kts
10-Mar-17 15:52 29.513570 -89.098580 295 34177ft 465kts
10-Mar-17 15:53 29.580663 -89.223565 295 34159ft 466kts
10-Mar-17 15:54 29.648331 -89.350801 295 33992ft 468kts
10-Mar-17 15:55 29.715874 -89.478290 295 33991ft 468kts
10-Mar-17 15:56 29.783568 -89.606451 295 33989ft 468kts
10-Mar-17 15:57 29.850880 -89.734344 295 34150ft 468kts
10-Mar-17 15:58 29.917873 -89.862025 295 34149ft 468kts
10-Mar-17 15:59 29.985139 -89.990624 295 34148ft 469kts
10-Mar-17 16:00 30.052328 -90.119446 295 34157ft 469kts
10-Mar-17 16:01 30.119578 -90.247930 294 34159ft 470kts
10-Mar-17 16:02 30.186168 -90.376425 294 34157ft 470kts
10-Mar-17 16:03 30.253119 -90.506077 294 34156ft 469kts
10-Mar-17 16:04 30.319835 -90.635717 294 34155ft 471kts
10-Mar-17 16:05 30.386691 -90.766052 294 34154ft 471kts
10-Mar-17 16:06 30.453319 -90.896371 294 34153ft 472kts
10-Mar-17 16:07 30.520001 -91.027231 294 34152ft 472kts
10-Mar-17 16:08 30.586357 -91.157273 294 34155ft 472kts
10-Mar-17 16:09 30.652993 -91.288492 294 34155ft 473kts
10-Mar-17 16:10 30.719288 -91.419888 294 34153ft 473kts
10-Mar-17 16:11 30.785614 -91.551809 294 34152ft 473kts
10-Mar-17 16:12 30.851630 -91.683552 294 34152ft 474kts
10-Mar-17 16:13 30.917976 -91.816420 294 34150ft 474kts
10-Mar-17 16:14 30.983995 -91.949066 294 34147ft 475kts
10-Mar-17 16:15 31.049955 -92.082073 294 34176ft 475kts
10-Mar-17 16:16 31.116210 -92.215198 294 34185ft 475kts
10-Mar-17 16:17 31.181783 -92.348198 293 34185ft 475kts
10-Mar-17 16:18 31.247305 -92.481822 293 34157ft 474kts
10-Mar-17 16:19 31.298084 -92.622351 286 34153ft 465kts
10-Mar-17 16:20 31.345440 -92.761456 286 34155ft 463kts
10-Mar-17 16:21 31.392769 -92.901277 286 34153ft 463kts
10-Mar-17 16:22 31.440050 -93.041557 286 34179ft 464kts
10-Mar-17 16:23 31.487215 -93.181054 285 34189ft 463kts
10-Mar-17 16:24 31.534228 -93.321307 285 34188ft 463kts
10-Mar-17 16:25 31.580996 -93.461827 285 34152ft 464kts
10-Mar-17 16:26 31.623342 -93.603816 280 34179ft 462kts
10-Mar-17 16:27 31.659304 -93.748263 280 34175ft 462kts
10-Mar-17 16:28 31.695451 -93.892896 280 34174ft 463kts
10-Mar-17 16:29 31.731523 -94.037875 280 34173ft 463kts
10-Mar-17 16:30 31.767696 -94.182627 280 34183ft 462kts
10-Mar-17 16:31 31.803407 -94.327098 280 34182ft 462kts
10-Mar-17 16:32 31.838937 -94.472153 280 34180ft 462kts
10-Mar-17 16:33 31.874331 -94.617489 280 34179ft 462kts
10-Mar-17 16:34 31.909448 -94.762472 280 34178ft 462kts
10-Mar-17 16:35 31.943898 -94.905287 280 33822ft 439kts
10-Mar-17 16:36 31.977062 -95.043991 280 32787ft 444kts
10-Mar-17 16:37 32.009972 -95.184172 280 31725ft 447kts
10-Mar-17 16:38 32.038965 -95.326800 266 29744ft 447kts
10-Mar-17 16:39 31.977355 -95.450430 232 28377ft 453kts
10-Mar-17 16:40 31.885131 -95.550458 222 27359ft 453kts
10-Mar-17 16:41 31.806139 -95.659705 253 26320ft 443kts
10-Mar-17 16:42 31.801934 -95.799826 283 25066ft 440kts
10-Mar-17 16:43 31.882186 -95.903680 320 23625ft 442kts
10-Mar-17 16:44 31.973347 -95.996052 316 22132ft 427kts
10-Mar-17 16:45 32.059215 -96.088804 317 20500ft 415kts
10-Mar-17 16:46 32.143148 -96.179498 317 18891ft 407kts
10-Mar-17 16:47 32.225232 -96.268736 316 17280ft 398kts
10-Mar-17 16:48 32.302526 -96.362740 298 15726ft 403kts
10-Mar-17 16:49 32.348157 -96.484923 294 14331ft 415kts
10-Mar-17 16:50 32.401506 -96.604551 299 12756ft 404kts
10-Mar-17 16:51 32.450492 -96.712226 301 11048ft 340kts
10-Mar-17 16:52 32.491626 -96.802886 301 9794ft 301kts
10-Mar-17 16:53 32.530717 -96.889350 300 8371ft 288kts
10-Mar-17 16:54 32.567555 -96.971095 300 6819ft 269kts
10-Mar-17 16:55 32.615710 -97.024376 359 6200ft 224kts
10-Mar-17 16:56 32.676660 -97.026085 3 5225ft 210kts
10-Mar-17 16:57 32.733277 -97.026703 3 3642ft 196kts
10-Mar-17 16:58 32.780653 -97.026608 0 2461ft 141kts
10-Mar-17 16:59 32.816957 -97.026486 1 1776ft 129kts
10-Mar-17 17:00 32.852306 -97.026311 1 1113ft 127kts
10-Mar-17 17:01 32.887074 -97.026090 1 569ft 102kts
10-Mar-17 17:02 32.898902 -97.026633 328 572ft 24kts
10-Mar-17 17:03 32.901128 -97.029901 271 581ft 10kts
10-Mar-17 17:04 32.901848 -97.033246 2 592ft 11kts
10-Mar-17 17:05 32.903725 -97.034303 295 598ft 9kts
10-Mar-17 17:06 32.904249 -97.034996 311 600ft 0kts
10-Mar-17 17:07 32.904249 -97.034996 311 600ft 0kts
10-Mar-17 17:08 32.904249 -97.034996 311 600ft 0kts

Navigation Log

Ident Type
Flight plan parsing failed, navigation log unavailable